Time;durP1;ratioP1;P1;durP2;ratioP2;P2;SDS_P1;SDS_P2;PMS_P1;PMS_P2;Temp;Humidity;BMP_temperature;BMP_pressure;BME280_temperature;BME280_humidity;BME280_pressure;Samples;Min_cycle;Max_cycle;Signal;HPM_P1;HPM_P2
2024/01/18 00:00:40;;;;;;;1.80;1.70;;;0.70;99.90;;;;;;5021031;28;20052;-79
2024/01/18 00:03:06;;;;;;;1.63;1.52;;;0.70;99.90;;;;;;5021295;28;20399;-80
2024/01/18 00:05:32;;;;;;;1.20;1.13;;;0.70;99.90;;;;;;5025491;28;20041;-81
2024/01/18 00:07:58;;;;;;;0.57;0.45;;;0.70;99.90;;;;;;5020626;28;20052;-81
2024/01/18 00:10:27;;;;;;;0.65;0.65;;;0.60;99.90;;;;;;5026384;28;20037;-79
2024/01/18 00:12:54;;;;;;;0.63;0.57;;;0.70;99.90;;;;;;5020360;28;20351;-80
2024/01/18 00:15:21;;;;;;;2.40;0.95;;;0.60;99.90;;;;;;5019412;28;20236;-79
2024/01/18 00:17:48;;;;;;;1.15;1.08;;;0.70;99.90;;;;;;5024683;28;20045;-78
2024/01/18 00:20:14;;;;;;;0.10;0.10;;;0.60;99.90;;;;;;5019853;28;20037;-78
2024/01/18 00:22:40;;;;;;;4.90;1.17;;;0.60;99.90;;;;;;5019123;28;20060;-81
2024/01/18 00:25:07;;;;;;;1.63;1.52;;;0.60;99.90;;;;;;5019856;28;20034;-80
2024/01/18 00:27:33;;;;;;;1.00;1.00;;;0.60;99.90;;;;;;5026429;28;20037;-80
2024/01/18 00:30:00;;;;;;;1.08;1.08;;;0.60;99.90;;;;;;5023707;28;20038;-79
2024/01/18 00:32:26;;;;;;;1.65;1.23;;;0.60;99.90;;;;;;5054065;28;20034;-80
2024/01/18 00:34:52;;;;;;;2.60;1.80;;;0.60;99.90;;;;;;5021236;28;20037;-80
2024/01/18 00:37:18;;;;;;;1.30;1.25;;;0.60;99.90;;;;;;5020057;28;20060;-80
2024/01/18 00:39:44;;;;;;;2.50;2.30;;;0.60;99.90;;;;;;5025976;28;20054;-81
2024/01/18 00:42:10;;;;;;;1.35;1.10;;;0.60;99.90;;;;;;5017331;28;20038;-79
2024/01/18 00:44:37;;;;;;;1.08;1.08;;;0.60;99.90;;;;;;5019970;28;20360;-79
2024/01/18 00:47:03;;;;;;;2.17;1.92;;;0.60;99.90;;;;;;5018146;28;20034;-78
2024/01/18 00:49:29;;;;;;;0.47;0.47;;;0.60;99.90;;;;;;5025448;28;20040;-79
2024/01/18 00:51:55;;;;;;;0.95;0.80;;;0.60;99.90;;;;;;5017151;28;20379;-78
2024/01/18 00:54:21;;;;;;;5.10;2.85;;;0.60;99.90;;;;;;5019182;28;20865;-78
2024/01/18 00:56:48;;;;;;;3.05;2.00;;;0.60;99.90;;;;;;5027706;28;20486;-78
2024/01/18 00:59:14;;;;;;;1.38;1.15;;;0.50;99.90;;;;;;5018886;28;20386;-78
2024/01/18 01:01:40;;;;;;;1.30;1.13;;;0.50;99.90;;;;;;5033942;28;20056;-77
2024/01/18 01:04:06;;;;;;;5.07;2.00;;;0.50;99.90;;;;;;5019134;28;20041;-78
2024/01/18 01:06:32;;;;;;;1.75;1.30;;;0.50;99.90;;;;;;5019815;28;20042;-80
2024/01/18 01:08:59;;;;;;;2.67;1.08;;;0.50;99.90;;;;;;5021932;28;20029;-79
2024/01/18 01:11:25;;;;;;;2.78;2.08;;;0.50;99.90;;;;;;5023551;28;20036;-79
2024/01/18 01:13:51;;;;;;;5.53;2.53;;;0.50;99.90;;;;;;5029178;28;20034;-79
2024/01/18 01:16:17;;;;;;;0.65;0.65;;;0.50;99.90;;;;;;5016696;28;20026;-79
2024/01/18 01:18:43;;;;;;;1.50;1.42;;;0.50;99.90;;;;;;5020204;28;20049;-78
2024/01/18 01:21:09;;;;;;;2.97;2.30;;;0.50;99.90;;;;;;5019364;28;20034;-77
2024/01/18 01:23:41;;;;;;;0.82;0.82;;;0.50;99.90;;;;;;5027684;28;20105;-80
2024/01/18 01:26:10;;;;;;;2.47;1.73;;;0.50;99.90;;;;;;5017051;28;20415;-78
2024/01/18 01:28:36;;;;;;;2.22;1.50;;;0.50;99.90;;;;;;5017967;28;20038;-81
2024/01/18 01:31:03;;;;;;;1.27;1.23;;;0.50;99.90;;;;;;5056060;28;20044;-79
2024/01/18 01:33:29;;;;;;;1.25;0.95;;;0.50;99.90;;;;;;5020245;28;20030;-78
2024/01/18 01:35:56;;;;;;;1.23;1.13;;;0.40;99.90;;;;;;5018611;28;20029;-79
2024/01/18 01:38:22;;;;;;;1.35;1.25;;;0.40;99.90;;;;;;5016346;28;20065;-81
2024/01/18 01:40:48;;;;;;;4.63;2.75;;;0.50;99.90;;;;;;5022680;28;20057;-80
2024/01/18 01:43:16;;;;;;;3.40;2.22;;;0.50;99.90;;;;;;5023464;28;20378;-78
2024/01/18 01:45:43;;;;;;;2.83;1.20;;;0.50;99.90;;;;;;5019417;28;20033;-83
2024/01/18 01:48:10;;;;;;;2.65;2.45;;;0.40;99.90;;;;;;5036790;28;20061;-77
2024/01/18 01:50:36;;;;;;;1.95;0.80;;;0.40;99.90;;;;;;5027150;28;20037;-79
2024/01/18 01:53:03;;;;;;;0.98;0.98;;;0.40;99.90;;;;;;5019981;28;20036;-78
2024/01/18 01:55:30;;;;;;;0.85;0.80;;;0.40;99.90;;;;;;5018867;28;20046;-80
2024/01/18 01:57:56;;;;;;;1.83;1.75;;;0.40;99.90;;;;;;5020025;28;20037;-78
2024/01/18 02:00:23;;;;;;;2.67;1.40;;;0.40;99.90;;;;;;5019898;28;20037;-78
2024/01/18 02:02:49;;;;;;;3.35;1.25;;;0.40;99.90;;;;;;5027341;28;20091;-79
2024/01/18 02:05:16;;;;;;;2.20;1.85;;;0.40;99.90;;;;;;5024810;28;20478;-80
2024/01/18 02:07:42;;;;;;;1.73;1.63;;;0.40;99.90;;;;;;5021940;28;20049;-80
2024/01/18 02:10:09;;;;;;;0.80;0.80;;;0.30;99.90;;;;;;5024341;28;20033;-78
2024/01/18 02:12:36;;;;;;;1.08;0.80;;;0.40;99.90;;;;;;5027467;28;20035;-84
2024/01/18 02:15:03;;;;;;;1.67;1.55;;;0.40;99.90;;;;;;5023715;28;20064;-80
2024/01/18 02:17:30;;;;;;;3.03;2.72;;;0.40;99.90;;;;;;5023393;28;20041;-80
2024/01/18 02:19:56;;;;;;;2.38;2.28;;;0.40;99.90;;;;;;5021234;28;20045;-80
2024/01/18 02:22:26;;;;;;;1.63;1.52;;;0.40;99.90;;;;;;5025270;28;20038;-80
2024/01/18 02:25:03;;;;;;;1.17;1.17;;;0.30;99.90;;;;;;5023492;28;20048;-80
2024/01/18 02:27:29;;;;;;;4.90;2.88;;;0.30;99.90;;;;;;5021896;28;20287;-78
2024/01/18 02:29:55;;;;;;;1.05;1.02;;;0.30;99.90;;;;;;5022217;28;20060;-78
2024/01/18 02:32:22;;;;;;;1.60;1.50;;;0.30;99.90;;;;;;5021095;28;20041;-78
2024/01/18 02:34:48;;;;;;;1.08;0.98;;;0.30;99.90;;;;;;5024462;28;20049;-77
2024/01/18 02:37:14;;;;;;;1.35;1.35;;;0.20;99.90;;;;;;5023840;28;20050;-79
2024/01/18 02:39:40;;;;;;;1.88;1.75;;;0.20;99.90;;;;;;5022158;28;20041;-79
2024/01/18 02:42:07;;;;;;;1.67;1.23;;;0.20;99.90;;;;;;5018893;28;20058;-80
2024/01/18 02:44:33;;;;;;;2.17;0.98;;;0.20;99.90;;;;;;5030336;28;20036;-79
2024/01/18 02:46:59;;;;;;;1.05;1.05;;;0.20;99.90;;;;;;5030463;28;20037;-78
2024/01/18 02:49:25;;;;;;;2.03;1.75;;;0.20;99.90;;;;;;5025037;28;20034;-77
2024/01/18 02:51:51;;;;;;;1.95;1.40;;;0.20;99.90;;;;;;5022231;28;20029;-77
2024/01/18 02:54:17;;;;;;;1.08;1.08;;;0.20;99.90;;;;;;5021660;28;20026;-78
2024/01/18 02:56:43;;;;;;;0.25;0.25;;;0.20;99.90;;;;;;5019327;28;20053;-78
2024/01/18 02:59:09;;;;;;;1.55;1.35;;;0.20;99.90;;;;;;5022483;28;20041;-78
2024/01/18 03:01:36;;;;;;;1.25;1.15;;;0.10;99.90;;;;;;5022475;28;20035;-79
2024/01/18 03:04:02;;;;;;;1.88;1.70;;;0.20;99.90;;;;;;5020384;28;20394;-79
2024/01/18 03:06:28;;;;;;;1.45;1.23;;;0.20;99.90;;;;;;5020074;28;20221;-80
2024/01/18 03:08:54;;;;;;;2.55;1.90;;;0.20;99.90;;;;;;5027920;28;20049;-79
2024/01/18 03:11:20;;;;;;;4.47;2.30;;;0.20;99.90;;;;;;5022820;28;20033;-78
2024/01/18 03:13:46;;;;;;;1.95;1.75;;;0.20;99.90;;;;;;5024812;28;20040;-79
2024/01/18 03:16:15;;;;;;;0.65;0.65;;;0.10;99.90;;;;;;5020790;28;20756;-78
2024/01/18 03:18:43;;;;;;;2.35;2.15;;;0.10;99.90;;;;;;5022294;28;20041;-78
2024/01/18 03:21:10;;;;;;;2.97;2.42;;;0.10;99.90;;;;;;5021432;28;20045;-78
2024/01/18 03:23:36;;;;;;;4.50;1.40;;;0.10;99.90;;;;;;5020351;28;20034;-80
2024/01/18 03:26:03;;;;;;;4.75;3.03;;;0.10;99.90;;;;;;5021126;28;20101;-81
2024/01/18 03:28:29;;;;;;;2.75;2.55;;;0.10;99.90;;;;;;5022725;28;20129;-80
2024/01/18 03:30:55;;;;;;;1.75;1.65;;;0.10;99.90;;;;;;5026410;28;20409;-80
2024/01/18 03:33:21;;;;;;;6.03;1.60;;;0.10;99.90;;;;;;5019554;28;20037;-78
2024/01/18 03:35:47;;;;;;;2.38;2.10;;;0.10;99.90;;;;;;5052787;28;20463;-79
2024/01/18 03:38:13;;;;;;;2.78;2.45;;;0.10;99.90;;;;;;5020578;28;20050;-78
2024/01/18 03:40:39;;;;;;;1.92;1.83;;;0.10;99.90;;;;;;5020332;28;20057;-80
2024/01/18 03:43:06;;;;;;;0.73;0.73;;;0.10;99.90;;;;;;5025904;28;20037;-79
2024/01/18 03:45:32;;;;;;;1.67;1.58;;;0.10;99.90;;;;;;5024671;28;20029;-80
2024/01/18 03:47:58;;;;;;;0.60;0.60;;;0.00;99.90;;;;;;5020419;28;20041;-78
2024/01/18 03:50:25;;;;;;;0.85;0.85;;;0.00;99.90;;;;;;5025484;28;20030;-77
2024/01/18 03:52:51;;;;;;;2.80;1.63;;;0.00;99.90;;;;;;5022042;28;20028;-77
2024/01/18 03:55:17;;;;;;;2.47;2.05;;;0.10;99.90;;;;;;5021987;28;20045;-77
2024/01/18 03:57:43;;;;;;;1.23;1.13;;;0.00;99.90;;;;;;5021505;28;20025;-77
2024/01/18 04:00:12;;;;;;;0.40;0.40;;;0.00;99.90;;;;;;5054615;28;20037;-76
2024/01/18 04:02:38;;;;;;;3.03;2.75;;;0.00;99.90;;;;;;5033900;28;20046;-77
2024/01/18 04:05:05;;;;;;;2.65;2.30;;;0.00;99.90;;;;;;5022405;28;20030;-76
2024/01/18 04:07:31;;;;;;;3.05;2.80;;;0.00;99.90;;;;;;5019089;28;20118;-80
2024/01/18 04:09:57;;;;;;;0.20;0.20;;;0.00;99.90;;;;;;5015937;28;20045;-78
2024/01/18 04:12:24;;;;;;;1.95;1.85;;;0.00;99.90;;;;;;5019662;28;20030;-78
2024/01/18 04:14:50;;;;;;;1.50;1.40;;;0.00;99.90;;;;;;5029295;28;20041;-77
2024/01/18 04:17:16;;;;;;;5.05;1.27;;;0.00;99.90;;;;;;5016968;28;20034;-78
2024/01/18 04:19:42;;;;;;;1.65;1.55;;;0.00;99.90;;;;;;5028198;28;20048;-78
2024/01/18 04:22:09;;;;;;;3.83;1.40;;;0.00;99.90;;;;;;5020539;28;20041;-76
2024/01/18 04:24:35;;;;;;;0.85;0.63;;;0.00;99.90;;;;;;5034744;28;20508;-81
2024/01/18 04:27:01;;;;;;;3.22;2.97;;;0.00;99.90;;;;;;5027371;28;20030;-79
2024/01/18 04:29:31;;;;;;;5.25;2.08;;;0.00;99.90;;;;;;5019825;28;20037;-79
2024/01/18 04:31:57;;;;;;;1.48;1.40;;;0.00;99.90;;;;;;5023570;28;20030;-77
2024/01/18 04:34:24;;;;;;;0.93;0.93;;;-0.10;99.90;;;;;;5020237;28;20052;-77
2024/01/18 04:36:50;;;;;;;0.93;0.93;;;0.00;99.90;;;;;;5019811;28;20511;-76
2024/01/18 04:39:16;;;;;;;0.55;0.55;;;0.00;99.90;;;;;;5022848;28;20042;-78
2024/01/18 04:41:42;;;;;;;2.45;1.80;;;0.00;99.90;;;;;;5017994;28;20052;-79
2024/01/18 04:44:08;;;;;;;6.55;1.92;;;0.00;99.90;;;;;;5023894;28;20033;-79
2024/01/18 04:46:34;;;;;;;1.52;1.42;;;0.00;99.90;;;;;;5023606;28;20838;-78
2024/01/18 04:49:00;;;;;;;2.13;0.95;;;0.00;99.90;;;;;;5019894;28;20033;-78
2024/01/18 04:51:27;;;;;;;3.53;1.95;;;0.00;99.90;;;;;;5030604;28;20049;-77
2024/01/18 04:53:53;;;;;;;3.10;1.85;;;0.00;99.90;;;;;;5018254;28;20048;-79
2024/01/18 04:56:19;;;;;;;0.35;0.35;;;0.00;99.90;;;;;;5018960;28;20038;-77
2024/01/18 04:58:45;;;;;;;3.47;2.03;;;0.00;99.90;;;;;;5021202;28;20064;-78
2024/01/18 05:01:11;;;;;;;1.55;1.45;;;0.00;99.90;;;;;;5023601;28;20034;-78
2024/01/18 05:03:38;;;;;;;0.82;0.82;;;0.00;99.90;;;;;;5019965;28;20033;-77
2024/01/18 05:06:04;;;;;;;1.98;1.88;;;0.00;99.90;;;;;;5020320;28;20038;-77
2024/01/18 05:08:31;;;;;;;0.85;0.85;;;0.00;99.90;;;;;;5019716;28;20489;-78
2024/01/18 05:10:57;;;;;;;0.93;0.85;;;0.00;99.90;;;;;;5022682;28;20030;-78
2024/01/18 05:13:23;;;;;;;4.75;1.02;;;0.00;99.90;;;;;;5022203;28;20037;-78
2024/01/18 05:15:49;;;;;;;2.63;2.42;;;0.00;99.90;;;;;;5026022;28;20041;-79
2024/01/18 05:18:15;;;;;;;3.20;1.80;;;0.00;99.90;;;;;;5018656;28;20395;-78
2024/01/18 05:20:42;;;;;;;1.50;1.40;;;0.00;99.90;;;;;;5019636;28;20053;-77
2024/01/18 05:23:08;;;;;;;5.15;2.65;;;0.00;99.90;;;;;;5021991;28;20037;-79
2024/01/18 05:25:34;;;;;;;1.25;0.75;;;0.00;99.90;;;;;;5019664;28;20034;-80
2024/01/18 05:28:00;;;;;;;0.68;0.68;;;0.00;99.90;;;;;;5033969;28;20030;-81
2024/01/18 05:30:26;;;;;;;1.98;1.88;;;0.00;99.90;;;;;;5018786;28;20045;-80
2024/01/18 05:32:53;;;;;;;0.50;0.38;;;0.00;99.90;;;;;;5021882;28;20339;-78
2024/01/18 05:35:19;;;;;;;0.50;0.50;;;0.00;99.90;;;;;;5025013;28;20029;-78
2024/01/18 05:37:45;;;;;;;0.95;0.95;;;0.00;99.90;;;;;;5024059;28;20045;-78
2024/01/18 05:40:12;;;;;;;2.30;1.20;;;0.00;99.90;;;;;;5021047;28;20041;-85
2024/01/18 05:42:38;;;;;;;2.72;2.50;;;0.00;99.90;;;;;;5022040;28;20460;-78
2024/01/18 05:45:05;;;;;;;2.85;2.60;;;0.00;99.90;;;;;;5029087;28;20044;-77
2024/01/18 05:47:32;;;;;;;4.85;1.90;;;-0.10;99.90;;;;;;5027130;28;20056;-79
2024/01/18 05:49:58;;;;;;;0.85;0.85;;;0.00;99.90;;;;;;5020893;28;20033;-79
2024/01/18 05:52:24;;;;;;;0.45;0.45;;;0.00;99.90;;;;;;5026862;28;20387;-77
2024/01/18 05:54:52;;;;;;;2.00;1.88;;;0.00;99.90;;;;;;5026968;28;20037;-77
2024/01/18 05:57:18;;;;;;;1.75;1.65;;;0.00;99.90;;;;;;5027388;28;20053;-79
2024/01/18 05:59:44;;;;;;;0.98;0.90;;;0.00;99.90;;;;;;5022373;28;20041;-79
2024/01/18 06:02:10;;;;;;;0.75;0.68;;;0.00;99.90;;;;;;5020108;28;20033;-81
2024/01/18 06:04:36;;;;;;;0.47;0.47;;;0.00;99.90;;;;;;5019954;28;20028;-79
2024/01/18 06:07:03;;;;;;;0.55;0.50;;;0.00;99.90;;;;;;5015781;28;20042;-80
2024/01/18 06:09:29;;;;;;;0.50;0.50;;;0.00;99.90;;;;;;5026276;28;20028;-77
2024/01/18 06:11:55;;;;;;;0.28;0.28;;;-0.10;99.90;;;;;;5026965;28;20022;-78
2024/01/18 06:14:21;;;;;;;0.35;0.35;;;0.00;99.90;;;;;;5022027;28;20030;-78
2024/01/18 06:16:47;;;;;;;0.20;0.20;;;-0.10;99.90;;;;;;5018280;28;20037;-77
2024/01/18 06:19:14;;;;;;;0.38;0.38;;;-0.10;99.90;;;;;;5017556;28;20033;-79
2024/01/18 06:21:41;;;;;;;1.20;1.15;;;-0.10;99.90;;;;;;5018733;28;20038;-80
2024/01/18 06:24:07;;;;;;;3.10;1.95;;;-0.10;99.90;;;;;;5019829;28;20040;-83
2024/01/18 06:26:33;;;;;;;2.15;1.95;;;-0.10;99.90;;;;;;5019203;28;20052;-79
2024/01/18 06:29:00;;;;;;;1.65;1.10;;;-0.10;99.90;;;;;;5019608;28;20426;-79
2024/01/18 06:31:27;;;;;;;2.08;1.25;;;-0.10;99.90;;;;;;5020233;28;20512;-80
2024/01/18 06:33:53;;;;;;;0.63;0.63;;;-0.10;99.90;;;;;;5023651;28;20037;-81
2024/01/18 06:36:22;;;;;;;1.23;1.00;;;-0.10;99.90;;;;;;5019682;28;20061;-79
2024/01/18 06:38:49;;;;;;;5.85;3.22;;;-0.10;99.90;;;;;;5025853;28;20048;-81
2024/01/18 06:41:16;;;;;;;0.80;0.80;;;-0.10;99.90;;;;;;5022363;28;20482;-79
2024/01/18 06:43:42;;;;;;;2.75;1.10;;;-0.20;99.90;;;;;;5016822;28;20052;-79
2024/01/18 06:46:18;;;;;;;1.95;1.27;;;-0.20;99.90;;;;;;5041912;28;20038;-79
2024/01/18 06:48:52;;;;;;;0.65;0.47;;;-0.20;99.90;;;;;;5019393;28;20347;-78
2024/01/18 06:51:20;;;;;;;0.50;0.50;;;-0.20;99.90;;;;;;5029881;28;20030;-76
2024/01/18 06:53:47;;;;;;;1.65;1.55;;;-0.20;99.90;;;;;;5023902;28;20028;-77
2024/01/18 06:56:13;;;;;;;1.08;1.05;;;-0.20;99.90;;;;;;5022315;28;20045;-78
2024/01/18 06:58:40;;;;;;;1.63;1.52;;;-0.20;99.90;;;;;;5022143;28;20025;-77
2024/01/18 07:01:06;;;;;;;4.93;1.98;;;-0.20;99.90;;;;;;5024458;28;20466;-77
2024/01/18 07:03:35;;;;;;;0.68;0.50;;;-0.30;99.90;;;;;;5020627;28;20029;-80
2024/01/18 07:06:05;;;;;;;0.90;0.60;;;-0.40;99.90;;;;;;5024430;28;20505;-77
2024/01/18 07:08:31;;;;;;;1.55;1.45;;;-0.50;99.90;;;;;;5022518;28;20053;-77
2024/01/18 07:10:58;;;;;;;3.67;1.00;;;-0.50;99.90;;;;;;5018371;28;20053;-77
2024/01/18 07:13:26;;;;;;;1.48;1.38;;;-0.50;99.90;;;;;;5028285;28;20025;-77
2024/01/18 07:15:52;;;;;;;0.20;0.20;;;-0.50;99.90;;;;;;5030527;28;20061;-76
2024/01/18 07:18:19;;;;;;;1.52;1.45;;;-0.50;99.90;;;;;;5016082;28;20459;-76
2024/01/18 07:20:45;;;;;;;2.65;2.45;;;-0.60;99.90;;;;;;5020659;28;20029;-75
2024/01/18 07:23:13;;;;;;;2.63;1.25;;;-0.60;99.90;;;;;;5043165;28;20057;-76
2024/01/18 07:25:40;;;;;;;1.67;1.58;;;-0.60;99.90;;;;;;5022979;28;20037;-76
2024/01/18 07:28:06;;;;;;;1.25;1.15;;;-0.60;99.90;;;;;;5019839;28;20188;-76
2024/01/18 07:30:32;;;;;;;0.28;0.28;;;-0.70;99.90;;;;;;5010669;28;20049;-76
2024/01/18 07:32:58;;;;;;;7.07;2.13;;;-0.70;99.90;;;;;;5021751;28;20037;-75
2024/01/18 07:35:24;;;;;;;0.65;0.65;;;-0.70;99.90;;;;;;5021824;28;20030;-78
2024/01/18 07:37:51;;;;;;;1.35;1.25;;;-0.70;99.90;;;;;;5019594;28;20049;-77
2024/01/18 07:40:17;;;;;;;1.83;1.73;;;-0.70;99.90;;;;;;5021138;28;20045;-80
2024/01/18 07:42:43;;;;;;;1.25;1.15;;;-0.70;99.90;;;;;;5019796;28;20037;-79
2024/01/18 07:45:14;;;;;;;1.38;1.27;;;-0.80;99.90;;;;;;5019430;28;20360;-76
2024/01/18 07:47:44;;;;;;;0.73;0.68;;;-0.80;99.90;;;;;;5018535;28;20053;-78
2024/01/18 07:50:11;;;;;;;1.30;1.25;;;-0.80;99.90;;;;;;5018856;28;20041;-78
2024/01/18 07:52:38;;;;;;;2.20;0.88;;;-0.80;99.90;;;;;;5023106;28;20401;-72
2024/01/18 07:55:06;;;;;;;3.70;1.05;;;-0.80;99.90;;;;;;5024779;28;20045;-73
2024/01/18 07:57:34;;;;;;;0.85;0.70;;;-0.80;99.90;;;;;;5022627;28;20387;-71
2024/01/18 08:00:01;;;;;;;1.95;1.85;;;-0.80;99.90;;;;;;5027673;28;20033;-74
2024/01/18 08:02:28;;;;;;;0.57;0.57;;;-0.80;99.90;;;;;;5020295;28;20040;-73
2024/01/18 08:04:54;;;;;;;0.45;0.45;;;-0.80;99.90;;;;;;5024561;28;20033;-73
2024/01/18 08:07:20;;;;;;;0.00;0.00;;;-0.80;99.90;;;;;;5020101;28;20045;-76
2024/01/18 08:09:46;;;;;;;2.63;2.42;;;-0.90;99.90;;;;;;5019558;28;20060;-74
2024/01/18 08:12:12;;;;;;;2.25;1.35;;;-0.90;99.90;;;;;;5018885;28;20049;-74
2024/01/18 08:14:43;;;;;;;8.63;1.92;;;-0.90;99.90;;;;;;5019197;28;20037;-75
2024/01/18 08:17:09;;;;;;;1.17;0.93;;;-0.90;99.90;;;;;;5018931;28;20026;-75
2024/01/18 08:19:38;;;;;;;0.57;0.57;;;-1.00;99.90;;;;;;5016868;28;20034;-76
2024/01/18 08:22:04;;;;;;;1.58;1.48;;;-1.00;99.90;;;;;;5020435;28;20034;-77
2024/01/18 08:24:30;;;;;;;1.00;0.93;;;-1.00;99.90;;;;;;5018944;28;20034;-75
2024/01/18 08:26:56;;;;;;;1.40;1.13;;;-1.00;99.90;;;;;;5024490;28;20459;-74
2024/01/18 08:29:23;;;;;;;0.47;0.47;;;-1.10;99.90;;;;;;5022842;28;20034;-76
2024/01/18 08:31:49;;;;;;;0.90;0.90;;;-1.00;99.90;;;;;;5019929;28;20056;-74
2024/01/18 08:34:15;;;;;;;1.90;1.15;;;-1.00;99.90;;;;;;5018534;28;20040;-74
2024/01/18 08:36:42;;;;;;;3.03;1.35;;;-1.00;99.90;;;;;;5022077;28;20045;-73
2024/01/18 08:39:08;;;;;;;4.93;1.25;;;-1.10;99.90;;;;;;5018534;28;20033;-73
2024/01/18 08:41:34;;;;;;;2.47;1.38;;;-1.10;99.90;;;;;;5021336;28;20040;-74
2024/01/18 08:44:01;;;;;;;0.75;0.75;;;-1.10;99.90;;;;;;5019537;28;20030;-74
2024/01/18 08:46:27;;;;;;;0.40;0.40;;;-1.20;99.90;;;;;;5019484;28;20038;-76
2024/01/18 08:48:54;;;;;;;1.05;1.05;;;-1.20;99.90;;;;;;5019445;28;20475;-73
2024/01/18 08:51:20;;;;;;;2.08;1.48;;;-1.30;99.90;;;;;;5018035;28;20045;-76
2024/01/18 08:53:46;;;;;;;0.82;0.82;;;-1.30;99.90;;;;;;5020268;28;20033;-75
2024/01/18 08:56:12;;;;;;;0.75;0.75;;;-1.30;99.90;;;;;;5023437;28;20336;-74
2024/01/18 08:58:39;;;;;;;1.15;1.10;;;-1.30;99.90;;;;;;5020505;28;20037;-75
2024/01/18 09:01:05;;;;;;;1.38;0.63;;;-1.30;99.90;;;;;;5017697;28;20037;-75
2024/01/18 09:03:31;;;;;;;0.65;0.65;;;-1.30;99.90;;;;;;5018295;28;20047;-75
2024/01/18 09:05:57;;;;;;;0.43;0.43;;;-1.30;99.90;;;;;;5027733;28;20041;-75
2024/01/18 09:08:23;;;;;;;1.77;1.52;;;-1.40;99.90;;;;;;5019086;28;20038;-77
2024/01/18 09:10:50;;;;;;;0.65;0.63;;;-1.40;99.90;;;;;;5019673;28;20394;-75
2024/01/18 09:13:16;;;;;;;0.45;0.45;;;-1.40;99.90;;;;;;5021948;28;20030;-75
2024/01/18 09:15:42;;;;;;;0.43;0.43;;;-1.40;99.90;;;;;;5016894;28;20034;-75
2024/01/18 09:18:08;;;;;;;0.60;0.60;;;-1.40;99.90;;;;;;5023964;28;20493;-76
2024/01/18 09:20:34;;;;;;;1.00;0.95;;;-1.40;99.90;;;;;;5014219;28;20045;-76
2024/01/18 09:23:01;;;;;;;0.75;0.75;;;-1.30;99.90;;;;;;5022885;28;20065;-75
2024/01/18 09:25:27;;;;;;;0.95;0.95;;;-1.40;99.90;;;;;;5018640;28;20041;-76
2024/01/18 09:27:54;;;;;;;0.20;0.20;;;-1.30;99.90;;;;;;5022256;28;20037;-75
2024/01/18 09:30:20;;;;;;;0.95;0.95;;;-1.30;99.90;;;;;;5017632;28;20029;-74
2024/01/18 09:32:47;;;;;;;0.82;0.80;;;-1.40;99.90;;;;;;5020159;28;20397;-75
2024/01/18 09:35:14;;;;;;;0.10;0.10;;;-1.40;99.90;;;;;;5022717;28;20077;-75
2024/01/18 09:37:40;;;;;;;0.75;0.75;;;-1.40;99.90;;;;;;5028958;28;20046;-75
2024/01/18 09:40:11;;;;;;;2.08;1.48;;;-1.40;99.90;;;;;;5021095;28;20041;-75
2024/01/18 09:42:44;;;;;;;2.03;1.52;;;-1.40;99.90;;;;;;5020354;28;20467;-75
2024/01/18 09:45:13;;;;;;;3.50;3.00;;;-1.40;99.90;;;;;;5019703;28;20475;-75
2024/01/18 09:47:44;;;;;;;1.70;1.60;;;-1.40;99.90;;;;;;5018338;28;20041;-75
2024/01/18 09:50:10;;;;;;;0.35;0.35;;;-1.40;99.90;;;;;;5055501;28;20508;-74
2024/01/18 09:52:37;;;;;;;1.50;1.40;;;-1.40;99.90;;;;;;5015885;28;20390;-75
2024/01/18 09:55:04;;;;;;;0.57;0.57;;;-1.30;99.90;;;;;;5018530;28;20062;-74
2024/01/18 09:57:33;;;;;;;0.90;0.68;;;-1.30;99.90;;;;;;5020665;28;20046;-75
2024/01/18 10:00:03;;;;;;;1.98;1.77;;;-1.30;99.90;;;;;;5021017;28;20045;-74
2024/01/18 10:02:36;;;;;;;0.70;0.70;;;-1.30;99.90;;;;;;5023662;28;20685;-74
2024/01/18 10:05:05;;;;;;;1.42;1.30;;;-1.30;99.90;;;;;;5014146;28;20034;-74
2024/01/18 10:07:31;;;;;;;6.95;1.00;;;-1.30;99.90;;;;;;5018290;28;20038;-75
2024/01/18 10:09:57;;;;;;;4.80;2.65;;;-1.20;99.90;;;;;;5018328;28;20041;-74
2024/01/18 10:12:30;;;;;;;0.68;0.68;;;-1.20;99.90;;;;;;5020630;28;20113;-74
2024/01/18 10:14:57;;;;;;;1.23;1.08;;;-1.20;99.90;;;;;;5015343;28;20033;-75
2024/01/18 10:17:23;;;;;;;1.95;1.83;;;-1.20;99.90;;;;;;5020359;28;20036;-75
2024/01/18 10:19:52;;;;;;;0.75;0.57;;;-1.00;99.90;;;;;;5032262;28;20622;-74
2024/01/18 10:22:20;;;;;;;1.65;1.55;;;-1.10;99.90;;;;;;5035957;28;20048;-75
2024/01/18 10:24:47;;;;;;;3.90;3.53;;;-1.10;99.90;;;;;;5020040;28;20413;-74
2024/01/18 10:27:14;;;;;;;0.40;0.40;;;-1.10;99.90;;;;;;5021885;28;20065;-74
2024/01/18 10:29:40;;;;;;;1.55;0.95;;;-1.10;99.90;;;;;;5026851;28;20045;-75
2024/01/18 10:32:09;;;;;;;0.38;0.38;;;-1.00;99.90;;;;;;5016075;28;20038;-74
2024/01/18 10:34:37;;;;;;;1.48;1.38;;;-1.00;99.90;;;;;;5021148;28;20045;-74
2024/01/18 10:37:03;;;;;;;2.55;1.80;;;-1.00;99.90;;;;;;5021856;28;20073;-74
2024/01/18 10:39:40;;;;;;;1.30;1.20;;;-1.00;99.90;;;;;;5027227;28;20053;-73
2024/01/18 10:42:08;;;;;;;0.28;0.28;;;-1.00;99.90;;;;;;5021032;28;20042;-73
2024/01/18 10:44:43;;;;;;;1.52;1.42;;;-0.90;99.90;;;;;;5021870;28;20041;-74
2024/01/18 10:47:15;;;;;;;1.20;0.88;;;-0.80;99.90;;;;;;5032417;28;20368;-74
2024/01/18 10:49:45;;;;;;;0.63;0.63;;;-0.80;99.90;;;;;;5022587;28;20026;-74
2024/01/18 10:52:11;;;;;;;4.40;0.77;;;-0.70;99.90;;;;;;5022122;28;20032;-74
2024/01/18 10:54:38;;;;;;;2.08;1.02;;;-0.70;99.90;;;;;;5028870;28;20503;-75
2024/01/18 10:57:05;;;;;;;1.85;1.75;;;-0.70;99.90;;;;;;5023472;28;20034;-75
2024/01/18 10:59:31;;;;;;;0.32;0.28;;;-0.60;99.90;;;;;;5026267;28;20041;-75
2024/01/18 11:01:59;;;;;;;2.95;2.67;;;-0.50;99.90;;;;;;5051266;28;20038;-74
2024/01/18 11:04:33;;;;;;;0.75;0.75;;;-0.50;99.90;;;;;;5019848;28;20045;-74
2024/01/18 11:07:01;;;;;;;4.20;3.05;;;-0.50;99.90;;;;;;5018979;28;20038;-74
2024/01/18 11:09:29;;;;;;;1.23;1.17;;;-0.50;99.90;;;;;;5024674;28;20034;-75
2024/01/18 11:11:57;;;;;;;1.55;0.77;;;-0.50;99.90;;;;;;5022904;28;20041;-74
2024/01/18 11:14:26;;;;;;;2.05;1.50;;;-0.50;99.90;;;;;;5021392;28;20484;-74
2024/01/18 11:16:53;;;;;;;1.63;1.52;;;-0.50;99.90;;;;;;5016551;28;20042;-74
2024/01/18 11:19:39;;;;;;;1.40;0.73;;;-0.40;99.90;;;;;;5025721;28;20491;-74
2024/01/18 11:22:08;;;;;;;0.40;0.40;;;-0.40;99.90;;;;;;5021787;28;20038;-74
2024/01/18 11:24:34;;;;;;;1.08;0.98;;;-0.50;99.90;;;;;;5023458;28;20037;-74
2024/01/18 11:27:15;;;;;;;3.10;1.75;;;-0.40;99.90;;;;;;5023341;28;20026;-74
2024/01/18 11:29:41;;;;;;;3.45;2.90;;;-0.40;99.90;;;;;;5018175;28;20064;-73
2024/01/18 11:32:13;;;;;;;1.30;1.15;;;-0.40;99.90;;;;;;5020773;28;20399;-74
2024/01/18 11:34:40;;;;;;;1.42;1.35;;;-0.40;99.90;;;;;;5020771;28;20390;-75
2024/01/18 11:37:12;;;;;;;6.80;1.63;;;-0.40;99.90;;;;;;5022130;28;20057;-75
2024/01/18 11:39:48;;;;;;;0.95;0.95;;;-0.40;99.90;;;;;;5016652;28;20029;-74
2024/01/18 11:42:18;;;;;;;3.22;2.65;;;-0.40;99.90;;;;;;5025160;28;20040;-74
2024/01/18 11:45:04;;;;;;;2.75;2.25;;;-0.40;99.90;;;;;;5023306;28;20045;-75
2024/01/18 11:47:32;;;;;;;3.10;2.90;;;-0.30;99.90;;;;;;5021409;28;20405;-76
2024/01/18 11:50:05;;;;;;;1.95;1.73;;;-0.30;99.90;;;;;;5017501;28;20041;-76
2024/01/18 11:52:36;;;;;;;2.65;2.45;;;-0.20;99.90;;;;;;5022874;28;20088;-76
2024/01/18 11:55:03;;;;;;;;;;;-0.20;99.90;;;;;;5022749;28;20038;-75
2024/01/18 11:57:32;;;;;;;5.43;3.55;;;-0.30;99.90;;;;;;5020433;28;19916;-76
2024/01/18 12:00:00;;;;;;;1.52;1.42;;;-0.20;99.90;;;;;;5018004;28;20037;-76
2024/01/18 12:02:28;;;;;;;11.23;2.90;;;-0.20;99.90;;;;;;5021639;28;20038;-77
2024/01/18 12:04:55;;;;;;;3.20;3.00;;;-0.10;99.90;;;;;;5022770;28;20041;-76
2024/01/18 12:07:23;;;;;;;0.85;0.82;;;-0.10;99.90;;;;;;5020056;28;20486;-76
2024/01/18 12:09:49;;;;;;;2.35;1.65;;;-0.10;99.90;;;;;;5029222;28;20037;-77
2024/01/18 12:12:16;;;;;;;1.65;1.52;;;-0.10;99.90;;;;;;5024402;28;20033;-79
2024/01/18 12:14:43;;;;;;;4.97;3.13;;;0.00;99.90;;;;;;5018962;28;20041;-77
2024/01/18 12:17:12;;;;;;;0.93;0.93;;;-0.10;99.90;;;;;;5021173;28;20033;-77
2024/01/18 12:19:40;;;;;;;1.85;0.95;;;-0.10;99.90;;;;;;5018881;28;20033;-75
2024/01/18 12:22:08;;;;;;;1.27;1.17;;;0.00;99.90;;;;;;5049940;28;20038;-77
2024/01/18 12:24:35;;;;;;;0.80;0.68;;;0.00;99.90;;;;;;5024669;28;20492;-76
2024/01/18 12:27:02;;;;;;;3.55;1.10;;;0.00;99.90;;;;;;5024559;28;20057;-77
2024/01/18 12:29:30;;;;;;;2.72;1.40;;;0.00;99.90;;;;;;5052305;28;20030;-76
2024/01/18 12:31:56;;;;;;;1.85;1.60;;;0.00;99.90;;;;;;5018953;28;20059;-76
2024/01/18 12:34:24;;;;;;;1.13;1.08;;;0.00;99.90;;;;;;5018197;28;20025;-76
2024/01/18 12:36:51;;;;;;;3.25;2.22;;;0.00;99.90;;;;;;5051716;28;20064;-77
2024/01/18 12:39:18;;;;;;;2.05;1.85;;;0.00;99.90;;;;;;5020440;28;20034;-77
2024/01/18 12:41:46;;;;;;;1.73;1.63;;;0.00;99.90;;;;;;5019078;28;20044;-76
2024/01/18 12:44:12;;;;;;;0.57;0.57;;;0.00;99.90;;;;;;5017649;28;20371;-76
2024/01/18 12:46:40;;;;;;;1.42;1.33;;;0.00;99.90;;;;;;5017332;28;20061;-77
2024/01/18 12:49:07;;;;;;;1.48;0.88;;;0.00;99.90;;;;;;5052268;28;20053;-76
2024/01/18 12:51:35;;;;;;;7.57;1.90;;;0.00;99.90;;;;;;5018334;28;20041;-76